Time;durP1;ratioP1;P1;durP2;ratioP2;P2;SDS_P1;SDS_P2;PMS_P1;PMS_P2;Temp;Humidity;BMP_temperature;BMP_pressure;BME280_temperature;BME280_humidity;BME280_pressure;Samples;Min_cycle;Max_cycle;Signal;HPM_P1;HPM_P2
2022/10/09 00:01:02;;;;;;;;;8.33;7.00;;;;;14.90;48.22;101580.28;5056782;28;45446;-58
2022/10/09 00:03:27;;;;;;;;;7.33;7.33;;;;;14.90;47.47;101580.28;5070385;28;45486;-59
2022/10/09 00:05:52;;;;;;;;;6.00;6.00;;;;;14.91;48.37;101588.16;5077376;28;45347;-59
2022/10/09 00:08:18;;;;;;;;;7.00;7.00;;;;;14.91;48.77;101587.28;5057460;28;45394;-58
2022/10/09 00:10:43;;;;;;;;;8.67;8.33;;;;;14.89;48.16;101582.06;5056131;28;50462;-58
2022/10/09 00:13:09;;;;;;;;;11.00;10.00;;;;;14.89;48.46;101575.91;5056846;28;45395;-57
2022/10/09 00:15:39;;;;;;;;;6.00;6.00;;;;;14.86;48.00;101574.22;5050475;28;46163;-59
2022/10/09 00:18:06;;;;;;;;;7.00;7.00;;;;;14.83;47.63;101582.31;5067319;28;45489;-58
2022/10/09 00:20:39;;;;;;;;;8.33;7.00;;;;;14.80;47.71;101579.75;5077060;28;46247;-58
2022/10/09 00:23:05;;;;;;;;;8.00;6.33;;;;;14.79;48.85;101575.38;5075664;28;45462;-58
2022/10/09 00:25:32;;;;;;;;;8.33;8.00;;;;;14.79;47.89;101570.94;5070871;28;45708;-58
2022/10/09 00:27:59;;;;;;;;;9.67;8.00;;;;;14.78;48.79;101571.88;5055883;28;45322;-58
2022/10/09 00:30:24;;;;;;;;;13.00;12.00;;;;;14.80;48.59;101575.34;5049660;28;46162;-58
2022/10/09 00:32:49;;;;;;;;;8.67;8.33;;;;;14.81;48.52;101570.88;5054375;28;45384;-58
2022/10/09 00:35:15;;;;;;;;;9.67;9.00;;;;;14.79;48.84;101568.28;5057465;28;45568;-58
2022/10/09 00:37:40;;;;;;;;;7.67;7.00;;;;;14.79;48.37;101578.03;5055976;28;45491;-58
2022/10/09 00:40:06;;;;;;;;;8.00;5.67;;;;;14.76;47.99;101570.19;5053175;28;59509;-58
2022/10/09 00:42:31;;;;;;;;;8.33;7.00;;;;;14.75;48.08;101568.47;5049268;28;45923;-58
2022/10/09 00:44:59;;;;;;;;;6.67;6.67;;;;;14.74;48.35;101570.25;5056490;28;45365;-58
2022/10/09 00:47:34;;;;;;;;;6.00;6.00;;;;;14.68;48.39;101562.53;5069149;28;45477;-58
2022/10/09 00:50:16;;;;;;;;;7.00;6.67;;;;;14.65;49.09;101572.38;5074183;28;45715;-58
2022/10/09 00:52:43;;;;;;;;;5.33;5.33;;;;;14.66;48.61;101563.50;5056468;28;45478;-57
2022/10/09 00:55:10;;;;;;;;;9.67;7.67;;;;;14.63;48.76;101566.28;5056558;28;45391;-58
2022/10/09 00:57:38;;;;;;;;;6.67;6.67;;;;;14.58;48.67;101564.66;5055973;28;45485;-58
2022/10/09 01:00:08;;;;;;;;;7.00;6.33;;;;;14.56;48.90;101566.50;5056000;28;46236;-58
2022/10/09 01:02:33;;;;;;;;;6.33;5.33;;;;;14.54;49.28;101573.63;5046840;28;45430;-58
2022/10/09 01:04:59;;;;;;;;;9.00;8.00;;;;;14.52;49.23;101554.28;5055700;28;45493;-58
2022/10/09 01:07:30;;;;;;;;;6.00;6.00;;;;;14.54;48.84;101567.47;5055624;28;45526;-58
2022/10/09 01:10:01;;;;;;;;;5.33;5.33;;;;;14.52;49.18;101553.41;5054819;28;45424;-58
2022/10/09 01:12:45;;;;;;;;;5.67;5.00;;;;;14.52;49.76;101550.75;5055705;28;45610;-58
2022/10/09 01:15:18;;;;;;;;;6.00;5.67;;;;;14.53;49.21;101549.84;5055641;28;45517;-59
2022/10/09 01:18:03;;;;;;;;;5.67;5.00;;;;;14.45;48.87;101552.75;5053800;28;45367;-59
2022/10/09 01:20:50;;;;;;;;;6.00;5.00;;;;;14.37;49.41;101528.34;5055657;28;45395;-58
2022/10/09 01:23:27;;;;;;;;;6.67;6.67;;;;;14.39;49.46;101538.88;5055790;28;45415;-58
2022/10/09 01:26:33;;;;;;;;;5.33;4.00;;;;;14.31;49.52;101537.38;5056034;28;45404;-58
2022/10/09 01:29:05;;;;;;;;;4.67;4.67;;;;;14.32;49.32;101528.53;5050492;28;45564;-59
2022/10/09 01:31:34;;;;;;;;;5.00;5.00;;;;;14.34;49.53;101528.44;5054575;28;45935;-58
2022/10/09 01:34:00;;;;;;;;;7.00;5.33;;;;;14.35;49.69;101523.13;5053719;28;45397;-57
2022/10/09 01:36:29;;;;;;;;;7.67;5.67;;;;;14.36;49.27;101526.63;5056454;28;45446;-58
2022/10/09 01:38:59;;;;;;;;;5.00;5.00;;;;;14.28;49.28;101524.25;5026538;28;45531;-58
2022/10/09 01:41:25;;;;;;;;;5.00;4.00;;;;;14.26;49.67;101519.94;5055505;28;45398;-58
2022/10/09 01:43:51;;;;;;;;;7.33;6.00;;;;;14.26;49.86;101506.69;5055469;28;45435;-58
2022/10/09 01:46:30;;;;;;;;;5.00;5.00;;;;;14.24;49.70;101497.94;5054112;28;45425;-59
2022/10/09 01:49:08;;;;;;;;;4.33;4.00;;;;;14.24;49.48;101497.94;5053162;28;45442;-58
2022/10/09 01:52:04;;;;;;;;;7.00;4.67;;;;;14.20;50.34;101499.84;5055514;28;45553;-58
2022/10/09 01:54:41;;;;;;;;;6.00;6.00;;;;;14.14;49.92;101489.50;5051904;28;45360;-58
2022/10/09 01:57:09;;;;;;;;;4.67;4.00;;;;;14.11;50.17;101487.81;5055648;28;45422;-57
2022/10/09 01:59:41;;;;;;;;;4.00;4.00;;;;;14.09;49.90;101484.34;5055502;28;45392;-58
2022/10/09 02:02:07;;;;;;;;;5.00;3.67;;;;;14.07;50.09;101478.25;5044066;28;45575;-58
2022/10/09 02:04:37;;;;;;;;;7.67;6.00;;;;;14.02;50.27;101474.91;5041324;28;45348;-58
2022/10/09 02:07:04;;;;;;;;;4.00;4.00;;;;;14.00;50.04;101471.47;5055229;28;45420;-58
2022/10/09 02:09:31;;;;;;;;;4.67;4.67;;;;;14.02;50.20;101476.69;5052877;28;45501;-58
2022/10/09 02:12:03;;;;;;;;;6.00;5.33;;;;;14.03;50.48;101470.50;5055227;28;46407;-58
2022/10/09 02:14:29;;;;;;;;;3.00;3.00;;;;;14.02;50.25;101468.75;5016641;28;45680;-58
2022/10/09 02:17:22;;;;;;;;;5.67;5.67;;;;;13.98;50.39;101475.09;5034946;28;45456;-58
2022/10/09 02:19:56;;;;;;;;;4.00;4.00;;;;;13.93;50.48;101459.38;5034925;28;45608;-58
2022/10/09 02:22:25;;;;;;;;;5.33;5.33;;;;;13.91;50.67;101462.06;5043926;28;46280;-58
2022/10/09 02:24:51;;;;;;;;;5.00;5.00;;;;;13.90;50.66;101455.06;5037526;28;45480;-58
2022/10/09 02:27:19;;;;;;;;;4.00;3.67;;;;;13.89;51.12;101450.69;5037811;28;45394;-58
2022/10/09 02:29:46;;;;;;;;;5.00;4.00;;;;;13.87;50.60;101451.66;5038490;28;45491;-58
2022/10/09 02:32:13;;;;;;;;;3.67;3.67;;;;;13.86;50.91;101452.56;5054729;28;46008;-58
2022/10/09 02:34:38;;;;;;;;;4.67;4.33;;;;;13.85;50.54;101448.22;5058573;28;45493;-58
2022/10/09 02:37:04;;;;;;;;;4.00;4.00;;;;;13.85;51.01;101454.34;5059164;28;45873;-58
2022/10/09 02:39:29;;;;;;;;;5.00;5.00;;;;;13.84;50.82;101447.34;5040721;28;45720;-58
2022/10/09 02:41:55;;;;;;;;;5.00;5.00;;;;;13.82;50.58;101451.81;5038130;28;46172;-58
2022/10/09 02:44:20;;;;;;;;;4.33;4.33;;;;;13.84;50.62;101446.50;5037174;28;45511;-58
2022/10/09 02:46:45;;;;;;;;;6.00;5.67;;;;;13.84;50.45;101439.41;5049166;28;45446;-58
2022/10/09 02:49:11;;;;;;;;;5.33;5.33;;;;;13.84;50.42;101436.78;5057851;28;47419;-56
2022/10/09 02:51:36;;;;;;;;;6.67;5.00;;;;;13.86;50.61;101442.00;5057882;28;45444;-58
2022/10/09 02:54:02;;;;;;;;;7.00;5.67;;;;;13.83;51.06;101431.53;5058137;28;45870;-58
2022/10/09 02:56:27;;;;;;;;;6.00;6.00;;;;;13.80;50.82;101429.84;5058112;28;45470;-58
2022/10/09 02:58:53;;;;;;;;;5.67;5.67;;;;;13.77;50.90;101423.81;5040375;28;45494;-58
2022/10/09 03:01:19;;;;;;;;;5.67;5.67;;;;;13.72;51.09;101426.63;5046674;28;45478;-58
2022/10/09 03:03:45;;;;;;;;;6.67;5.00;;;;;13.68;51.15;101419.72;5058095;28;45386;-57
2022/10/09 03:06:13;;;;;;;;;6.00;6.00;;;;;13.62;51.35;101423.44;5047355;28;45458;-58
2022/10/09 03:08:41;;;;;;;;;6.00;5.67;;;;;13.61;50.96;101428.78;5016786;28;45496;-58
2022/10/09 03:11:08;;;;;;;;;4.67;4.00;;;;;13.58;51.05;101421.81;5036627;28;46130;-58
2022/10/09 03:13:34;;;;;;;;;6.00;6.00;;;;;13.58;51.47;101421.81;5037643;28;45758;-57
2022/10/09 03:16:22;;;;;;;;;6.67;6.67;;;;;13.56;51.02;101417.50;5038064;28;45524;-57
2022/10/09 03:18:49;;;;;;;;;9.00;6.00;;;;;13.58;51.44;101415.66;5037237;28;45395;-58
2022/10/09 03:21:20;;;;;;;;;6.00;6.00;;;;;13.56;51.41;101407.78;5031155;28;47111;-58
2022/10/09 03:23:46;;;;;;;;;9.00;7.00;;;;;13.54;51.60;101411.41;5057495;28;45519;-58
2022/10/09 03:26:14;;;;;;;;;6.33;5.67;;;;;13.54;50.88;101406.09;5050468;28;45511;-60
2022/10/09 03:28:42;;;;;;;;;5.33;5.33;;;;;13.55;51.35;101407.84;5057776;28;45407;-58
2022/10/09 03:31:08;;;;;;;;;6.67;6.33;;;;;13.55;51.76;101403.44;5068718;28;45643;-58
2022/10/09 03:33:35;;;;;;;;;5.33;5.00;;;;;13.57;51.48;101400.75;5055608;28;45368;-59
2022/10/09 03:36:00;;;;;;;;;5.00;5.00;;;;;13.55;51.42;101402.56;5058184;28;45375;-57
2022/10/09 03:38:26;;;;;;;;;6.67;5.67;;;;;13.56;51.45;101401.63;5053147;28;45524;-58
2022/10/09 03:40:51;;;;;;;;;7.33;6.33;;;;;13.59;51.47;101404.16;5055957;28;46273;-58
2022/10/09 03:43:17;;;;;;;;;6.00;6.00;;;;;13.56;51.10;101397.22;5057614;28;45420;-58
2022/10/09 03:45:42;;;;;;;;;5.67;5.67;;;;;13.57;51.48;101401.59;5068281;28;45530;-58
2022/10/09 03:48:12;;;;;;;;;8.33;7.00;;;;;13.56;51.60;101396.34;5066944;28;45652;-58
2022/10/09 03:50:39;;;;;;;;;6.00;6.00;;;;;13.61;51.57;101389.13;5057276;28;45502;-58
2022/10/09 03:53:05;;;;;;;;;5.00;5.00;;;;;13.58;51.23;101386.59;5039137;28;45759;-58
2022/10/09 03:55:30;;;;;;;;;5.00;5.00;;;;;13.59;51.35;101390.97;5057480;28;45652;-58
2022/10/09 03:57:55;;;;;;;;;8.67;8.33;;;;;13.58;51.73;101389.25;5057049;28;45605;-58
2022/10/09 04:00:21;;;;;;;;;4.00;4.00;;;;;13.55;51.26;101382.28;5061532;28;45401;-58
2022/10/09 04:02:46;;;;;;;;;4.33;4.33;;;;;13.54;51.58;101387.59;5067522;28;45481;-58
2022/10/09 04:05:12;;;;;;;;;5.67;5.67;;;;;13.53;51.42;101391.19;5057239;28;45514;-58
2022/10/09 04:07:37;;;;;;;;;5.00;5.00;;;;;13.50;51.42;101391.28;5057238;28;45491;-58
2022/10/09 04:10:04;;;;;;;;;3.67;3.67;;;;;13.48;51.25;101384.25;5056865;28;45816;-58
2022/10/09 04:12:29;;;;;;;;;6.67;6.67;;;;;13.50;51.79;101386.88;5057072;28;45396;-58
2022/10/09 04:14:54;;;;;;;;;7.00;6.33;;;;;13.48;51.62;101381.63;5057480;28;45429;-58
2022/10/09 04:17:20;;;;;;;;;4.00;4.00;;;;;13.45;51.79;101384.38;5068575;28;56296;-58
2022/10/09 04:19:45;;;;;;;;;5.00;5.00;;;;;13.41;51.45;101384.56;5055247;28;45472;-57
2022/10/09 04:22:10;;;;;;;;;8.33;5.00;;;;;13.41;52.11;101385.41;5056525;28;45490;-58
2022/10/09 04:24:36;;;;;;;;;5.67;4.67;;;;;13.41;51.87;101377.47;5056344;28;45414;-58
2022/10/09 04:27:01;;;;;;;;;5.00;5.00;;;;;13.38;51.87;101379.34;5038804;28;45428;-57
2022/10/09 04:29:26;;;;;;;;;6.00;5.33;;;;;13.39;50.93;101384.59;5056883;28;46147;-58
2022/10/09 04:31:52;;;;;;;;;7.00;7.00;;;;;13.37;52.29;101377.63;5049810;28;45744;-58
2022/10/09 04:34:17;;;;;;;;;4.33;4.33;;;;;13.37;51.63;101381.13;5056743;28;45322;-58
2022/10/09 04:36:42;;;;;;;;;6.33;6.33;;;;;13.35;52.34;101375.06;5057298;28;45387;-57
2022/10/09 04:39:08;;;;;;;;;6.33;4.33;;;;;13.37;51.74;101381.13;5053138;28;46656;-58
2022/10/09 04:41:33;;;;;;;;;4.00;4.00;;;;;13.39;51.78;101373.16;5055748;28;54703;-58
2022/10/09 04:43:58;;;;;;;;;6.33;5.00;;;;;13.38;51.58;101376.72;5052722;28;45513;-58
2022/10/09 04:46:24;;;;;;;;;5.67;5.33;;;;;13.36;52.14;101371.50;5074874;28;45414;-58
2022/10/09 04:48:49;;;;;;;;;6.00;6.00;;;;;13.36;51.40;101373.28;5056350;28;45820;-58
2022/10/09 04:51:16;;;;;;;;;4.00;4.00;;;;;13.38;51.87;101379.34;5049385;28;45383;-58
2022/10/09 04:53:43;;;;;;;;;7.00;4.00;;;;;13.37;51.87;101378.50;5056574;28;45426;-58
2022/10/09 04:56:11;;;;;;;;;5.33;5.00;;;;;13.35;51.97;101375.06;5056346;28;45518;-58
2022/10/09 04:58:40;;;;;;;;;4.67;4.67;;;;;13.35;51.73;101371.53;5045792;28;46240;-58
2022/10/09 05:01:12;;;;;;;;;5.33;5.33;;;;;13.33;51.65;101361.03;5053774;28;45499;-58
2022/10/09 05:03:37;;;;;;;;;4.33;4.00;;;;;13.33;51.91;101368.97;5050794;28;45398;-58
2022/10/09 05:06:05;;;;;;;;;5.33;5.33;;;;;13.34;51.61;101362.75;5054751;28;45391;-58
2022/10/09 05:08:31;;;;;;;;;3.67;3.67;;;;;13.35;51.93;101353.94;5056079;28;45449;-58
2022/10/09 05:11:21;;;;;;;;;4.00;4.00;;;;;13.33;51.67;101350.47;5056100;28;45448;-58
2022/10/09 05:13:48;;;;;;;;;5.33;4.67;;;;;13.34;51.58;101361.88;5047089;28;45413;-58
2022/10/09 05:16:17;;;;;;;;;7.33;6.00;;;;;13.36;51.39;101352.16;5060916;28;45580;-58
2022/10/09 05:18:45;;;;;;;;;5.00;5.00;;;;;13.35;52.08;101351.28;5055668;28;45498;-58
2022/10/09 05:21:11;;;;;;;;;4.67;4.67;;;;;13.33;51.63;101344.31;5050369;28;45380;-58
2022/10/09 05:23:37;;;;;;;;;7.00;5.00;;;;;13.31;51.40;101340.88;5055932;28;45522;-58
2022/10/09 05:26:06;;;;;;;;;4.33;4.00;;;;;13.32;52.00;101340.78;5055450;28;45588;-58
2022/10/09 05:28:32;;;;;;;;;7.00;7.00;;;;;13.29;51.51;101345.34;5052715;28;45462;-58
2022/10/09 05:30:57;;;;;;;;;7.67;6.33;;;;;13.20;51.54;101341.22;5059482;28;45505;-58
2022/10/09 05:33:23;;;;;;;;;7.33;4.33;;;;;13.21;52.09;101338.50;5056062;28;45494;-58
2022/10/09 05:35:54;;;;;;;;;9.00;8.00;;;;;13.17;52.19;101336.03;5051992;28;45568;-59
2022/10/09 05:38:21;;;;;;;;;7.00;6.00;;;;;13.22;52.05;101340.25;5047451;28;45493;-58
2022/10/09 05:41:06;;;;;;;;;4.00;4.00;;;;;13.20;52.64;101338.56;5054000;28;45457;-58
2022/10/09 05:43:34;;;;;;;;;5.67;5.67;;;;;13.19;52.55;101336.81;5039355;28;45376;-58
2022/10/09 05:46:09;;;;;;;;;7.00;7.00;;;;;13.21;52.26;101343.78;5073837;28;45447;-58
2022/10/09 05:48:35;;;;;;;;;6.67;6.67;;;;;13.23;52.38;101338.44;5075730;28;45632;-58
2022/10/09 05:51:07;;;;;;;;;5.33;4.67;;;;;13.16;52.50;101337.78;5075910;28;45461;-58
2022/10/09 05:53:32;;;;;;;;;5.00;5.00;;;;;13.07;53.10;101345.19;5064510;28;45480;-58
2022/10/09 05:56:27;;;;;;;;;6.00;6.00;;;;;13.09;52.35;101340.72;5055621;28;45525;-58
2022/10/09 05:58:57;;;;;;;;;7.67;7.33;;;;;13.09;52.48;101338.94;5060172;28;45483;-60
2022/10/09 06:01:25;;;;;;;;;7.67;7.67;;;;;13.08;53.26;101333.69;5060708;28;45442;-58
2022/10/09 06:03:52;;;;;;;;;6.33;6.33;;;;;13.08;53.35;101328.41;5079307;28;45379;-58
2022/10/09 06:06:20;;;;;;;;;5.33;4.67;;;;;13.05;53.17;101326.72;5063012;28;45459;-59
2022/10/09 06:08:46;;;;;;;;;8.33;5.33;;;;;12.98;52.70;101334.00;5041947;28;45519;-59
2022/10/09 06:11:15;;;;;;;;;8.00;7.00;;;;;12.99;53.42;101326.94;5058303;28;45447;-58
2022/10/09 06:13:40;;;;;;;;;6.00;5.00;;;;;13.02;52.49;101326.84;5061866;28;45596;-59
2022/10/09 06:16:07;;;;;;;;;8.67;6.00;;;;;12.98;53.11;101331.38;5058208;28;45486;-59
2022/10/09 06:18:33;;;;;;;;;7.00;7.00;;;;;12.97;52.52;101313.78;5052434;28;46097;-59
2022/10/09 06:21:00;;;;;;;;;6.67;5.00;;;;;12.99;52.60;101327.81;5048916;28;45558;-59
2022/10/09 06:23:26;;;;;;;;;5.33;5.33;;;;;12.98;53.03;101323.44;5057946;28;45312;-59
2022/10/09 06:25:53;;;;;;;;;9.67;6.00;;;;;13.01;53.13;101322.47;5037545;28;45383;-59
2022/10/09 06:28:18;;;;;;;;;9.00;7.00;;;;;13.02;52.86;101325.06;5056804;28;46289;-59
2022/10/09 06:30:44;;;;;;;;;7.00;7.00;;;;;13.04;52.77;101325.88;5051497;28;45533;-59
2022/10/09 06:33:09;;;;;;;;;6.67;6.67;;;;;13.07;52.85;101327.53;5077268;28;45339;-59
2022/10/09 06:35:34;;;;;;;;;8.00;8.00;;;;;13.06;52.74;101325.84;5078462;28;53924;-58
2022/10/09 06:38:00;;;;;;;;;8.00;7.00;;;;;13.09;52.78;101324.88;5078289;28;45600;-59
2022/10/09 06:40:25;;;;;;;;;5.67;5.67;;;;;13.07;51.96;101327.53;5063484;28;45511;-59
2022/10/09 06:42:51;;;;;;;;;5.33;5.33;;;;;13.07;52.39;101324.06;5058573;28;45490;-59
2022/10/09 06:45:17;;;;;;;;;9.00;5.00;;;;;13.06;52.49;101317.91;5052986;28;46209;-59
2022/10/09 06:47:42;;;;;;;;;2.33;2.33;;;;;13.08;52.44;101317.84;5057591;28;45422;-59
2022/10/09 06:50:08;;;;;;;;;6.33;6.00;;;;;13.10;51.96;101324.78;5058050;28;45446;-59
2022/10/09 06:52:33;;;;;;;;;6.67;6.00;;;;;13.08;51.88;101320.47;5057538;28;45571;-59
2022/10/09 06:54:58;;;;;;;;;6.00;6.00;;;;;13.10;51.97;101326.59;5058071;28;45566;-58
2022/10/09 06:57:24;;;;;;;;;6.33;6.33;;;;;13.07;52.05;101321.41;5056971;28;51686;-58
2022/10/09 06:59:50;;;;;;;;;5.33;4.67;;;;;13.07;52.24;101314.34;5056839;28;45465;-59
2022/10/09 07:02:16;;;;;;;;;6.67;6.67;;;;;13.05;52.37;101321.44;5051723;28;45385;-59
2022/10/09 07:04:41;;;;;;;;;5.33;5.33;;;;;13.02;52.12;101317.13;5051669;28;45426;-59
2022/10/09 07:07:06;;;;;;;;;6.33;6.33;;;;;13.00;52.35;101313.72;5056453;28;45359;-59
2022/10/09 07:09:32;;;;;;;;;5.67;5.67;;;;;13.03;51.73;101320.66;5056921;28;45375;-58
2022/10/09 07:11:57;;;;;;;;;6.33;6.33;;;;;12.99;52.30;101309.31;5057571;28;45364;-59
2022/10/09 07:14:22;;;;;;;;;6.00;6.00;;;;;12.97;51.86;101313.78;5040668;28;45377;-59
2022/10/09 07:16:48;;;;;;;;;7.67;7.67;;;;;12.99;52.00;101316.38;5074103;28;45482;-59
2022/10/09 07:19:16;;;;;;;;;7.33;7.33;;;;;13.01;52.08;101310.13;5078202;28;45397;-59
2022/10/09 07:21:45;;;;;;;;;6.00;6.00;;;;;13.04;52.43;101306.53;5078196;28;45441;-59
2022/10/09 07:24:11;;;;;;;;;8.00;6.00;;;;;13.07;51.71;101300.28;5078037;28;45452;-58
2022/10/09 07:26:39;;;;;;;;;5.33;5.33;;;;;13.07;51.77;101295.84;5077817;28;45455;-58
2022/10/09 07:29:07;;;;;;;;;6.00;6.00;;;;;13.09;51.65;101303.75;5072516;28;45590;-59
2022/10/09 07:31:32;;;;;;;;;7.33;6.00;;;;;13.09;52.15;101309.88;5057495;28;45467;-59
2022/10/09 07:33:58;;;;;;;;;5.00;5.00;;;;;13.10;52.12;101300.16;5057404;28;45414;-58
2022/10/09 07:36:24;;;;;;;;;4.33;4.33;;;;;13.12;51.89;101304.50;5057588;28;45494;-59
2022/10/09 07:38:55;;;;;;;;;7.67;7.67;;;;;13.14;52.26;101301.81;5053353;28;45470;-59
2022/10/09 07:41:22;;;;;;;;;6.00;6.00;;;;;13.19;52.08;101297.19;5057412;28;45509;-59
2022/10/09 07:43:48;;;;;;;;;6.67;5.33;;;;;13.21;52.39;101293.59;5057232;28;45562;-59
2022/10/09 07:46:15;;;;;;;;;8.00;6.00;;;;;13.26;52.15;101298.75;5056887;28;46209;-58
2022/10/09 07:48:41;;;;;;;;;6.00;5.67;;;;;13.29;51.56;101298.63;5056994;28;45485;-59
2022/10/09 07:51:09;;;;;;;;;5.33;5.33;;;;;13.31;51.57;101301.25;5056962;28;45393;-59
2022/10/09 07:53:35;;;;;;;;;10.00;8.00;;;;;13.29;51.78;101296.00;5071243;28;45410;-59
2022/10/09 07:56:00;;;;;;;;;6.67;6.67;;;;;13.32;52.10;101287.09;5077354;28;46297;-59
2022/10/09 07:58:25;;;;;;;;;7.33;7.33;;;;;13.34;52.25;101283.50;5077466;28;45446;-59
2022/10/09 08:00:51;;;;;;;;;6.67;6.67;;;;;13.40;51.78;101291.19;5077098;28;45451;-58
2022/10/09 08:03:16;;;;;;;;;6.67;6.67;;;;;13.43;51.45;101291.09;5059257;28;45419;-59
2022/10/09 08:05:42;;;;;;;;;6.00;5.00;;;;;13.44;52.03;101286.69;5077131;28;45471;-58
2022/10/09 08:08:07;;;;;;;;;4.33;4.33;;;;;13.47;51.65;101287.41;5058285;28;50120;-59
2022/10/09 08:10:32;;;;;;;;;8.00;8.00;;;;;13.52;51.90;101283.75;5057351;28;45416;-58
2022/10/09 08:12:58;;;;;;;;;8.00;8.00;;;;;13.52;52.19;101281.13;5057015;28;45439;-58
2022/10/09 08:15:23;;;;;;;;;8.33;7.00;;;;;13.52;52.03;101273.19;5056887;28;46822;-59
2022/10/09 08:17:51;;;;;;;;;8.67;8.67;;;;;13.56;52.17;101280.91;5056973;28;45379;-59
2022/10/09 08:20:17;;;;;;;;;2.33;2.33;;;;;13.58;51.92;101278.25;5056364;28;45362;-59
2022/10/09 08:22:42;;;;;;;;;7.33;7.33;;;;;13.57;52.11;101276.53;5070721;28;45525;-59
2022/10/09 08:25:07;;;;;;;;;10.00;10.00;;;;;13.62;51.58;101274.53;5077025;28;47296;-59
2022/10/09 08:27:33;;;;;;;;;8.00;8.00;;;;;13.61;52.05;101272.84;5076909;28;45478;-58
2022/10/09 08:29:58;;;;;;;;;9.00;9.00;;;;;13.66;51.88;101269.09;5077156;28;45503;-58
2022/10/09 08:32:24;;;;;;;;;7.67;7.67;;;;;13.68;51.83;101264.63;5056171;28;45406;-59
2022/10/09 08:34:50;;;;;;;;;10.00;8.33;;;;;13.75;52.24;101267.03;5056245;28;45565;-58
2022/10/09 08:37:15;;;;;;;;;12.33;11.00;;;;;13.78;51.96;101259.88;5048008;28;45525;-59
2022/10/09 08:39:40;;;;;;;;;8.33;8.33;;;;;13.81;51.71;101265.03;5056206;28;45505;-59
2022/10/09 08:42:06;;;;;;;;;7.33;7.33;;;;;13.81;51.74;101261.50;5056584;28;45597;-59
2022/10/09 08:44:31;;;;;;;;;9.00;9.00;;;;;13.84;51.67;101264.06;5056343;28;46297;-59
2022/10/09 08:47:09;;;;;;;;;8.67;8.67;;;;;13.86;51.95;101257.78;5055998;28;45558;-59
2022/10/09 08:49:55;;;;;;;;;8.33;7.33;;;;;13.90;51.94;101254.09;5056066;28;45389;-59
2022/10/09 08:52:26;;;;;;;;;11.67;9.33;;;;;13.97;52.02;101253.84;5046297;28;45541;-61
2022/10/09 08:54:57;;;;;;;;;8.67;8.67;;;;;14.02;51.88;101249.22;5047368;28;45529;-59
2022/10/09 08:57:28;;;;;;;;;9.33;8.67;;;;;14.03;51.88;101243.91;5049050;28;45530;-59
2022/10/09 08:59:53;;;;;;;;;7.00;7.00;;;;;14.08;51.86;101244.56;5054387;28;45492;-58
2022/10/09 09:02:30;;;;;;;;;9.00;9.00;;;;;14.10;52.45;101244.50;5058739;28;45489;-59
2022/10/09 09:05:11;;;;;;;;;9.33;8.00;;;;;14.12;52.05;101245.31;5035748;28;46087;-58
2022/10/09 09:07:46;;;;;;;;;10.00;9.00;;;;;14.14;51.59;101236.38;5035834;28;45520;-59
2022/10/09 09:10:28;;;;;;;;;9.00;9.00;;;;;14.19;52.12;101230.91;5036199;28;45447;-59
2022/10/09 09:13:22;;;;;;;;;8.33;7.67;;;;;14.26;51.87;101227.09;5035819;28;45438;-59
2022/10/09 09:16:06;;;;;;;;;8.67;8.00;;;;;14.32;51.58;101232.16;5035724;28;46434;-59
2022/10/09 09:18:43;;;;;;;;;9.33;7.67;;;;;14.38;51.84;101220.44;5063692;28;45511;-59
2022/10/09 09:21:34;;;;;;;;;8.00;6.33;;;;;14.41;52.17;101217.66;5075239;28;45398;-59
2022/10/09 09:24:04;;;;;;;;;7.67;7.67;;;;;14.50;51.82;101208.47;5074896;28;45450;-59
2022/10/09 09:26:29;;;;;;;;;8.00;7.67;;;;;14.44;51.88;101195.50;5075663;28;46205;-59
2022/10/09 09:29:01;;;;;;;;;7.33;7.33;;;;;14.46;51.45;101193.66;5075676;28;45402;-60
2022/10/09 09:31:35;;;;;;;;;10.33;10.33;;;;;14.55;51.70;101206.53;5076374;28;45348;-59
2022/10/09 09:34:13;;;;;;;;;6.33;6.33;;;;;14.57;52.17;101199.41;5037801;28;45420;-60
2022/10/09 09:36:48;;;;;;;;;9.67;6.67;;;;;14.62;51.28;101207.16;5059306;28;46286;-59
2022/10/09 09:39:14;;;;;;;;;9.00;9.00;;;;;14.65;51.39;101194.63;5059087;28;45424;-59
2022/10/09 09:41:41;;;;;;;;;7.33;6.33;;;;;14.70;52.20;101197.09;5059380;28;45426;-59
2022/10/09 09:44:10;;;;;;;;;6.67;6.67;;;;;14.77;51.57;101187.94;5059358;28;45400;-59
2022/10/09 09:46:36;;;;;;;;;8.00;8.00;;;;;14.91;51.73;101188.22;5054464;28;45477;-59
2022/10/09 09:49:01;;;;;;;;;6.67;6.33;;;;;15.00;51.34;101185.16;5060807;28;45615;-59
2022/10/09 09:51:30;;;;;;;;;8.00;7.00;;;;;15.07;52.04;101180.47;5059229;28;45324;-59
2022/10/09 09:53:55;;;;;;;;;8.33;7.33;;;;;15.10;51.36;101182.09;5059116;28;45539;-61
2022/10/09 09:56:32;;;;;;;;;6.33;5.67;;;;;15.13;52.07;101179.31;5058800;28;45536;-61
2022/10/09 09:58:57;;;;;;;;;7.00;6.67;;;;;15.14;50.67;101171.28;5052278;28;45612;-60
2022/10/09 10:01:28;;;;;;;;;5.00;5.00;;;;;15.16;51.21;101172.09;5054147;28;45461;-59
2022/10/09 10:03:57;;;;;;;;;6.00;6.00;;;;;15.21;51.14;101169.22;5068482;28;45526;-59
2022/10/09 10:06:29;;;;;;;;;5.33;5.33;;;;;15.19;51.21;101163.13;5057792;28;46285;-59
2022/10/09 10:09:12;;;;;;;;;5.00;5.00;;;;;15.21;51.74;101156.84;5058567;28;45402;-59
2022/10/09 10:11:47;;;;;;;;;6.00;5.00;;;;;15.26;51.55;101154.00;5039648;28;45468;-60
2022/10/09 10:14:15;;;;;;;;;5.00;5.00;;;;;15.31;51.29;101145.81;5058230;28;45572;-59
2022/10/09 10:16:42;;;;;;;;;6.00;6.00;;;;;15.35;50.62;101147.41;5055677;28;45556;-59
2022/10/09 10:19:20;;;;;;;;;6.00;6.00;;;;;15.36;50.77;101131.41;5039925;28;45544;-59
2022/10/09 10:21:48;;;;;;;;;5.33;5.00;;;;;15.42;50.17;101128.50;5058403;28;45374;-59
2022/10/09 10:24:21;;;;;;;;;6.67;6.67;;;;;15.46;50.80;101126.53;5058777;28;45578;-59
2022/10/09 10:26:54;;;;;;;;;6.33;6.33;;;;;15.47;50.60;101120.28;5058136;28;46281;-59
2022/10/09 10:29:29;;;;;;;;;7.00;7.00;;;;;15.52;51.01;101118.28;5058213;28;45444;-60
2022/10/09 10:32:18;;;;;;;;;6.00;6.00;;;;;15.55;51.44;101120.78;5062600;28;45460;-60
2022/10/09 10:34:46;;;;;;;;;5.67;5.67;;;;;15.62;50.87;101124.03;5074746;28;45569;-59
2022/10/09 10:37:12;;;;;;;;;8.00;7.00;;;;;15.65;51.15;101114.13;5058499;28;46599;-59
2022/10/09 10:39:52;;;;;;;;;7.33;7.33;;;;;15.68;51.22;101114.00;5057743;28;45526;-59
2022/10/09 10:42:23;;;;;;;;;8.67;6.00;;;;;15.72;50.15;101105.91;5058234;28;45363;-61
2022/10/09 10:45:33;;;;;;;;;6.00;6.00;;;;;15.75;51.51;101106.63;5058278;28;45516;-59
2022/10/09 10:48:02;;;;;;;;;9.00;7.67;;;;;15.76;51.17;101099.50;4973961;28;45472;-59
2022/10/09 10:50:36;;;;;;;;;6.00;5.67;;;;;15.79;50.40;101094.91;4975602;28;45496;-59
2022/10/09 10:53:46;;;;;;;;;5.00;5.00;;;;;15.84;50.10;101090.25;5021521;28;45528;-59
2022/10/09 10:56:28;;;;;;;;;5.33;5.33;;;;;15.92;50.33;101086.34;5053844;28;45526;-59
2022/10/09 10:59:15;;;;;;;;;6.00;6.00;;;;;15.95;49.97;101081.75;5039319;28;45818;-59
2022/10/09 11:02:09;;;;;;;;;7.67;6.67;;;;;15.98;50.49;101073.63;5055936;28;45518;-59
2022/10/09 11:05:05;;;;;;;;;4.00;4.00;;;;;16.04;50.31;101067.16;5039806;28;45529;-59
2022/10/09 11:08:14;;;;;;;;;5.33;5.33;;;;;16.07;50.68;101062.56;5039852;28;45463;-59
2022/10/09 11:10:55;;;;;;;;;4.67;4.67;;;;;16.14;50.75;101060.44;5057879;28;46115;-60
2022/10/09 11:13:23;;;;;;;;;5.67;5.00;;;;;16.10;49.94;101050.94;5057361;28;45451;-58
2022/10/09 11:16:06;;;;;;;;;9.33;8.67;;;;;16.18;49.83;101047.91;5054289;28;45352;-58
2022/10/09 11:19:05;;;;;;;;;5.00;5.00;;;;;16.22;49.51;101046.78;5057701;28;45396;-58
2022/10/09 11:21:49;;;;;;;;;5.00;5.00;;;;;16.25;49.76;101041.31;5057209;28;46303;-60
2022/10/09 11:24:39;;;;;;;;;5.33;5.33;;;;;16.30;50.40;101034.84;5057639;28;45514;-58
2022/10/09 11:27:16;;;;;;;;;8.33;6.67;;;;;16.35;50.32;101037.25;5057709;28;45467;-58
2022/10/09 11:30:04;;;;;;;;;7.00;5.67;;;;;16.37;49.87;101027.41;5057109;28;45498;-58
2022/10/09 11:32:42;;;;;;;;;6.00;6.00;;;;;16.42;50.10;101027.19;5071431;28;46329;-58
2022/10/09 11:35:10;;;;;;;;;6.00;6.00;;;;;16.46;49.88;101026.91;5077416;28;45436;-58
2022/10/09 11:37:39;;;;;;;;;4.00;4.00;;;;;16.48;49.78;101014.44;5071847;28;45405;-58